sensor_id;sensor_type;location;lat;lon;timestamp;temperature;humidity
66722;SHT31;53633;49.932;10.884;2023-07-31T00:01:27;16.75;74.72
66722;SHT31;53633;49.932;10.884;2023-07-31T00:03:54;16.92;73.86
66722;SHT31;53633;49.932;10.884;2023-07-31T00:06:21;16.90;73.39
66722;SHT31;53633;49.932;10.884;2023-07-31T00:08:49;16.78;74.26
66722;SHT31;53633;49.932;10.884;2023-07-31T00:11:15;16.87;73.90
66722;SHT31;53633;49.932;10.884;2023-07-31T00:13:42;16.92;73.09
66722;SHT31;53633;49.932;10.884;2023-07-31T00:16:09;16.83;74.45
66722;SHT31;53633;49.932;10.884;2023-07-31T00:18:36;16.76;74.77
66722;SHT31;53633;49.932;10.884;2023-07-31T00:21:03;16.83;75.10
66722;SHT31;53633;49.932;10.884;2023-07-31T00:23:29;16.82;75.19
66722;SHT31;53633;49.932;10.884;2023-07-31T00:25:57;16.83;75.92
66722;SHT31;53633;49.932;10.884;2023-07-31T00:28:24;16.90;75.09
66722;SHT31;53633;49.932;10.884;2023-07-31T00:30:51;17.02;74.95
66722;SHT31;53633;49.932;10.884;2023-07-31T00:33:18;16.96;74.16
66722;SHT31;53633;49.932;10.884;2023-07-31T00:35:44;17.12;73.88
66722;SHT31;53633;49.932;10.884;2023-07-31T00:38:11;17.03;72.96
66722;SHT31;53633;49.932;10.884;2023-07-31T00:40:38;17.19;72.26
66722;SHT31;53633;49.932;10.884;2023-07-31T00:43:06;17.24;73.06
66722;SHT31;53633;49.932;10.884;2023-07-31T00:45:33;17.24;72.86
66722;SHT31;53633;49.932;10.884;2023-07-31T00:47:59;17.27;72.82
66722;SHT31;53633;49.932;10.884;2023-07-31T00:50:26;17.33;72.46
66722;SHT31;53633;49.932;10.884;2023-07-31T00:52:57;17.41;71.46
66722;SHT31;53633;49.932;10.884;2023-07-31T00:55:24;17.40;71.42
66722;SHT31;53633;49.932;10.884;2023-07-31T00:57:51;17.23;71.76
66722;SHT31;53633;49.932;10.884;2023-07-31T01:00:20;17.14;71.93
66722;SHT31;53633;49.932;10.884;2023-07-31T01:02:47;17.16;72.31
66722;SHT31;53633;49.932;10.884;2023-07-31T01:05:14;17.14;72.41
66722;SHT31;53633;49.932;10.884;2023-07-31T01:07:46;17.17;72.21
66722;SHT31;53633;49.932;10.884;2023-07-31T01:10:17;17.16;71.79
66722;SHT31;53633;49.932;10.884;2023-07-31T01:12:47;17.20;71.87
66722;SHT31;53633;49.932;10.884;2023-07-31T01:15:14;17.10;72.65
66722;SHT31;53633;49.932;10.884;2023-07-31T01:17:42;16.89;73.02
66722;SHT31;53633;49.932;10.884;2023-07-31T01:20:13;16.76;73.57
66722;SHT31;53633;49.932;10.884;2023-07-31T01:26:11;16.62;74.24
66722;SHT31;53633;49.932;10.884;2023-07-31T01:28:46;16.55;74.77
66722;SHT31;53633;49.932;10.884;2023-07-31T01:31:20;16.76;74.30
66722;SHT31;53633;49.932;10.884;2023-07-31T01:33:48;16.87;74.70
66722;SHT31;53633;49.932;10.884;2023-07-31T01:36:15;16.76;75.32
66722;SHT31;53633;49.932;10.884;2023-07-31T01:38:42;16.55;76.46
66722;SHT31;53633;49.932;10.884;2023-07-31T01:41:10;16.69;76.09
66722;SHT31;53633;49.932;10.884;2023-07-31T01:43:37;16.69;76.47
66722;SHT31;53633;49.932;10.884;2023-07-31T01:46:04;16.72;76.25
66722;SHT31;53633;49.932;10.884;2023-07-31T01:48:30;16.66;76.55
66722;SHT31;53633;49.932;10.884;2023-07-31T01:51:00;16.82;75.47
66722;SHT31;53633;49.932;10.884;2023-07-31T01:53:27;16.99;74.74
66722;SHT31;53633;49.932;10.884;2023-07-31T01:55:53;17.06;74.53
66722;SHT31;53633;49.932;10.884;2023-07-31T01:58:21;17.02;75.10
66722;SHT31;53633;49.932;10.884;2023-07-31T02:00:48;17.04;75.19
66722;SHT31;53633;49.932;10.884;2023-07-31T02:03:15;17.03;75.38
66722;SHT31;53633;49.932;10.884;2023-07-31T02:05:44;16.92;76.52
66722;SHT31;53633;49.932;10.884;2023-07-31T02:08:11;16.90;75.86
66722;SHT31;53633;49.932;10.884;2023-07-31T02:10:37;16.80;76.03
66722;SHT31;53633;49.932;10.884;2023-07-31T02:13:04;16.73;76.43
66722;SHT31;53633;49.932;10.884;2023-07-31T02:15:47;16.71;76.27
66722;SHT31;53633;49.932;10.884;2023-07-31T02:18:14;16.59;76.06
66722;SHT31;53633;49.932;10.884;2023-07-31T02:20:41;16.59;75.66
66722;SHT31;53633;49.932;10.884;2023-07-31T02:23:07;16.59;75.60
66722;SHT31;53633;49.932;10.884;2023-07-31T02:25:34;16.64;74.87
66722;SHT31;53633;49.932;10.884;2023-07-31T02:28:01;16.64;74.85
66722;SHT31;53633;49.932;10.884;2023-07-31T02:30:27;16.78;74.82
66722;SHT31;53633;49.932;10.884;2023-07-31T02:32:56;16.90;74.29
66722;SHT31;53633;49.932;10.884;2023-07-31T02:35:22;16.99;73.86
66722;SHT31;53633;49.932;10.884;2023-07-31T02:37:49;16.75;74.61
66722;SHT31;53633;49.932;10.884;2023-07-31T02:40:16;16.80;74.42
66722;SHT31;53633;49.932;10.884;2023-07-31T02:42:43;16.75;74.52
66722;SHT31;53633;49.932;10.884;2023-07-31T02:45:09;16.68;74.85
66722;SHT31;53633;49.932;10.884;2023-07-31T02:47:36;16.66;74.87
66722;SHT31;53633;49.932;10.884;2023-07-31T02:50:05;16.86;74.38
66722;SHT31;53633;49.932;10.884;2023-07-31T02:52:32;16.80;74.24
66722;SHT31;53633;49.932;10.884;2023-07-31T02:54:59;16.85;73.88
66722;SHT31;53633;49.932;10.884;2023-07-31T02:57:26;16.79;74.09
66722;SHT31;53633;49.932;10.884;2023-07-31T02:59:52;16.71;74.47
66722;SHT31;53633;49.932;10.884;2023-07-31T03:02:19;16.78;74.25
66722;SHT31;53633;49.932;10.884;2023-07-31T03:04:46;16.68;74.65
66722;SHT31;53633;49.932;10.884;2023-07-31T03:07:14;16.62;74.46
66722;SHT31;53633;49.932;10.884;2023-07-31T03:09:41;16.66;74.32
66722;SHT31;53633;49.932;10.884;2023-07-31T03:12:08;16.65;74.53
66722;SHT31;53633;49.932;10.884;2023-07-31T03:14:35;16.69;74.16
66722;SHT31;53633;49.932;10.884;2023-07-31T03:17:01;16.71;74.64
66722;SHT31;53633;49.932;10.884;2023-07-31T03:19:30;16.73;74.22
66722;SHT31;53633;49.932;10.884;2023-07-31T03:21:57;16.83;73.97
66722;SHT31;53633;49.932;10.884;2023-07-31T03:24:25;16.73;74.24
66722;SHT31;53633;49.932;10.884;2023-07-31T03:26:52;16.68;74.38
66722;SHT31;53633;49.932;10.884;2023-07-31T03:29:18;16.73;74.43
66722;SHT31;53633;49.932;10.884;2023-07-31T03:31:48;16.69;74.43
66722;SHT31;53633;49.932;10.884;2023-07-31T03:34:15;16.71;74.28
66722;SHT31;53633;49.932;10.884;2023-07-31T03:36:41;16.78;74.23
66722;SHT31;53633;49.932;10.884;2023-07-31T03:39:08;16.80;74.22
66722;SHT31;53633;49.932;10.884;2023-07-31T03:41:36;16.86;73.98
66722;SHT31;53633;49.932;10.884;2023-07-31T03:44:03;16.89;73.80
66722;SHT31;53633;49.932;10.884;2023-07-31T03:46:30;16.87;73.99
66722;SHT31;53633;49.932;10.884;2023-07-31T03:48:56;16.83;74.09
66722;SHT31;53633;49.932;10.884;2023-07-31T03:51:23;16.87;74.07
66722;SHT31;53633;49.932;10.884;2023-07-31T03:53:50;16.99;73.71
66722;SHT31;53633;49.932;10.884;2023-07-31T03:56:17;17.00;73.77
66722;SHT31;53633;49.932;10.884;2023-07-31T03:58:45;16.90;73.82
66722;SHT31;53633;49.932;10.884;2023-07-31T04:01:12;16.80;73.98
66722;SHT31;53633;49.932;10.884;2023-07-31T04:03:38;16.79;74.23
66722;SHT31;53633;49.932;10.884;2023-07-31T04:06:05;16.93;74.10
66722;SHT31;53633;49.932;10.884;2023-07-31T04:08:31;16.96;73.56
66722;SHT31;53633;49.932;10.884;2023-07-31T04:10:58;17.00;73.60
66722;SHT31;53633;49.932;10.884;2023-07-31T04:13:25;16.97;73.49
66722;SHT31;53633;49.932;10.884;2023-07-31T04:15:53;16.96;73.86
66722;SHT31;53633;49.932;10.884;2023-07-31T04:18:20;16.93;73.74
66722;SHT31;53633;49.932;10.884;2023-07-31T04:20:46;16.96;73.40
66722;SHT31;53633;49.932;10.884;2023-07-31T04:23:13;17.00;73.28
66722;SHT31;53633;49.932;10.884;2023-07-31T04:25:40;17.03;73.82
66722;SHT31;53633;49.932;10.884;2023-07-31T04:28:06;17.09;73.22
66722;SHT31;53633;49.932;10.884;2023-07-31T04:30:33;17.12;73.46
66722;SHT31;53633;49.932;10.884;2023-07-31T04:33:01;17.09;73.11
66722;SHT31;53633;49.932;10.884;2023-07-31T04:35:28;17.10;73.02
66722;SHT31;53633;49.932;10.884;2023-07-31T04:37:55;17.20;73.07
66722;SHT31;53633;49.932;10.884;2023-07-31T04:40:21;17.19;73.05
66722;SHT31;53633;49.932;10.884;2023-07-31T04:42:48;17.10;73.14
66722;SHT31;53633;49.932;10.884;2023-07-31T04:45:15;17.16;72.86
66722;SHT31;53633;49.932;10.884;2023-07-31T04:47:41;17.26;72.69
66722;SHT31;53633;49.932;10.884;2023-07-31T04:50:10;17.24;73.12
66722;SHT31;53633;49.932;10.884;2023-07-31T04:52:36;17.17;72.72
66722;SHT31;53633;49.932;10.884;2023-07-31T04:55:03;17.17;72.94
66722;SHT31;53633;49.932;10.884;2023-07-31T04:57:30;17.17;73.18
66722;SHT31;53633;49.932;10.884;2023-07-31T04:59:57;17.26;73.09
66722;SHT31;53633;49.932;10.884;2023-07-31T05:02:23;17.19;73.15
66722;SHT31;53633;49.932;10.884;2023-07-31T05:04:50;17.23;73.31
66722;SHT31;53633;49.932;10.884;2023-07-31T05:07:18;17.27;72.87
66722;SHT31;53633;49.932;10.884;2023-07-31T05:09:45;17.31;73.48
66722;SHT31;53633;49.932;10.884;2023-07-31T05:12:12;17.37;72.99
66722;SHT31;53633;49.932;10.884;2023-07-31T05:14:38;17.50;73.10
66722;SHT31;53633;49.932;10.884;2023-07-31T05:17:05;17.55;72.84
66722;SHT31;53633;49.932;10.884;2023-07-31T05:19:32;17.48;72.55
66722;SHT31;53633;49.932;10.884;2023-07-31T05:21:59;17.41;72.77
66722;SHT31;53633;49.932;10.884;2023-07-31T05:24:27;17.51;72.72
66722;SHT31;53633;49.932;10.884;2023-07-31T05:26:54;17.55;72.25
66722;SHT31;53633;49.932;10.884;2023-07-31T05:29:20;17.48;72.79
66722;SHT31;53633;49.932;10.884;2023-07-31T05:31:47;17.51;72.59
66722;SHT31;53633;49.932;10.884;2023-07-31T05:34:14;17.48;72.49
66722;SHT31;53633;49.932;10.884;2023-07-31T05:36:40;17.51;72.48
66722;SHT31;53633;49.932;10.884;2023-07-31T05:39:08;17.45;72.68
66722;SHT31;53633;49.932;10.884;2023-07-31T05:41:36;17.60;72.81
66722;SHT31;53633;49.932;10.884;2023-07-31T05:44:03;17.54;72.79
66722;SHT31;53633;49.932;10.884;2023-07-31T05:46:30;17.65;72.55
66722;SHT31;53633;49.932;10.884;2023-07-31T05:48:57;17.64;72.36
66722;SHT31;53633;49.932;10.884;2023-07-31T05:51:23;17.65;71.97
66722;SHT31;53633;49.932;10.884;2023-07-31T05:53:50;17.69;72.19
66722;SHT31;53633;49.932;10.884;2023-07-31T05:56:17;17.77;72.12
66722;SHT31;53633;49.932;10.884;2023-07-31T05:58:45;17.82;72.38
66722;SHT31;53633;49.932;10.884;2023-07-31T06:01:11;17.85;71.57
66722;SHT31;53633;49.932;10.884;2023-07-31T06:03:38;17.98;71.58
66722;SHT31;53633;49.932;10.884;2023-07-31T06:06:05;17.92;71.82
66722;SHT31;53633;49.932;10.884;2023-07-31T06:08:32;17.90;72.19
66722;SHT31;53633;49.932;10.884;2023-07-31T06:10:59;17.92;72.28
66722;SHT31;53633;49.932;10.884;2023-07-31T06:13:25;17.95;71.97
66722;SHT31;53633;49.932;10.884;2023-07-31T06:15:54;18.05;72.00
66722;SHT31;53633;49.932;10.884;2023-07-31T06:18:20;18.23;71.63
66722;SHT31;53633;49.932;10.884;2023-07-31T06:20:47;18.23;70.75
66722;SHT31;53633;49.932;10.884;2023-07-31T06:23:14;18.33;70.68
66722;SHT31;53633;49.932;10.884;2023-07-31T06:25:40;18.33;71.25
66722;SHT31;53633;49.932;10.884;2023-07-31T06:28:07;18.44;71.08
66722;SHT31;53633;49.932;10.884;2023-07-31T06:30:34;18.40;71.02
66722;SHT31;53633;49.932;10.884;2023-07-31T06:33:02;18.47;70.81
66722;SHT31;53633;49.932;10.884;2023-07-31T06:35:29;18.43;71.24
66722;SHT31;53633;49.932;10.884;2023-07-31T06:37:55;18.48;71.33
66722;SHT31;53633;49.932;10.884;2023-07-31T06:40:22;18.60;70.66
66722;SHT31;53633;49.932;10.884;2023-07-31T06:42:49;18.74;69.65
66722;SHT31;53633;49.932;10.884;2023-07-31T06:45:15;18.74;70.21
66722;SHT31;53633;49.932;10.884;2023-07-31T06:47:42;18.88;70.50
66722;SHT31;53633;49.932;10.884;2023-07-31T06:50:10;19.09;69.77
66722;SHT31;53633;49.932;10.884;2023-07-31T06:52:37;19.10;69.04
66722;SHT31;53633;49.932;10.884;2023-07-31T06:55:16;19.27;67.88
66722;SHT31;53633;49.932;10.884;2023-07-31T06:57:43;19.45;67.53
66722;SHT31;53633;49.932;10.884;2023-07-31T07:00:10;19.64;66.99
66722;SHT31;53633;49.932;10.884;2023-07-31T07:02:37;19.81;67.62
66722;SHT31;53633;49.932;10.884;2023-07-31T07:05:04;19.82;66.40
66722;SHT31;53633;49.932;10.884;2023-07-31T07:07:32;19.81;65.33
66722;SHT31;53633;49.932;10.884;2023-07-31T07:09:59;19.77;65.87
66722;SHT31;53633;49.932;10.884;2023-07-31T07:12:26;19.87;66.70
66722;SHT31;53633;49.932;10.884;2023-07-31T07:14:53;19.88;66.00
66722;SHT31;53633;49.932;10.884;2023-07-31T07:17:19;19.81;65.59
66722;SHT31;53633;49.932;10.884;2023-07-31T07:19:48;19.88;65.61
66722;SHT31;53633;49.932;10.884;2023-07-31T07:22:15;19.94;65.69
66722;SHT31;53633;49.932;10.884;2023-07-31T07:24:43;20.16;65.35
66722;SHT31;53633;49.932;10.884;2023-07-31T07:27:09;20.13;64.20
66722;SHT31;53633;49.932;10.884;2023-07-31T07:29:38;20.34;64.41
66722;SHT31;53633;49.932;10.884;2023-07-31T07:32:05;20.66;63.59
66722;SHT31;53633;49.932;10.884;2023-07-31T07:34:32;20.87;62.83
66722;SHT31;53633;49.932;10.884;2023-07-31T07:36:58;20.94;62.92
66722;SHT31;53633;49.932;10.884;2023-07-31T07:39:25;21.24;61.67
66722;SHT31;53633;49.932;10.884;2023-07-31T07:41:53;21.22;62.87
66722;SHT31;53633;49.932;10.884;2023-07-31T07:44:20;21.29;61.85
66722;SHT31;53633;49.932;10.884;2023-07-31T07:46:46;21.47;62.98
66722;SHT31;53633;49.932;10.884;2023-07-31T07:49:13;21.54;61.23
66722;SHT31;53633;49.932;10.884;2023-07-31T07:51:40;21.38;61.55
66722;SHT31;53633;49.932;10.884;2023-07-31T07:54:07;21.46;61.58
66722;SHT31;53633;49.932;10.884;2023-07-31T07:56:34;21.59;61.08
66722;SHT31;53633;49.932;10.884;2023-07-31T07:59:02;21.70;60.80
66722;SHT31;53633;49.932;10.884;2023-07-31T08:01:29;21.69;61.28
66722;SHT31;53633;49.932;10.884;2023-07-31T08:03:55;22.11;60.37
66722;SHT31;53633;49.932;10.884;2023-07-31T08:06:23;21.97;60.31
66722;SHT31;53633;49.932;10.884;2023-07-31T08:08:49;21.76;60.50
66722;SHT31;53633;49.932;10.884;2023-07-31T08:11:16;21.74;61.01
66722;SHT31;53633;49.932;10.884;2023-07-31T08:13:43;21.97;60.51
66722;SHT31;53633;49.932;10.884;2023-07-31T08:16:11;22.18;60.27
66722;SHT31;53633;49.932;10.884;2023-07-31T08:18:37;22.75;58.91
66722;SHT31;53633;49.932;10.884;2023-07-31T08:21:04;23.28;58.51
66722;SHT31;53633;49.932;10.884;2023-07-31T08:23:31;23.13;56.72
66722;SHT31;53633;49.932;10.884;2023-07-31T08:25:58;23.06;57.65
66722;SHT31;53633;49.932;10.884;2023-07-31T08:28:25;23.08;58.39
66722;SHT31;53633;49.932;10.884;2023-07-31T08:30:52;22.94;58.57
66722;SHT31;53633;49.932;10.884;2023-07-31T08:33:20;23.54;57.55
66722;SHT31;53633;49.932;10.884;2023-07-31T08:35:47;23.87;56.34
66722;SHT31;53633;49.932;10.884;2023-07-31T08:38:14;24.71;54.22
66722;SHT31;53633;49.932;10.884;2023-07-31T08:40:40;25.28;52.81
66722;SHT31;53633;49.932;10.884;2023-07-31T08:43:08;25.91;51.52
66722;SHT31;53633;49.932;10.884;2023-07-31T08:45:35;25.73;51.92
66722;SHT31;53633;49.932;10.884;2023-07-31T08:48:02;26.05;51.08
66722;SHT31;53633;49.932;10.884;2023-07-31T08:50:31;26.29;50.10
66722;SHT31;53633;49.932;10.884;2023-07-31T08:52:57;25.74;51.45
66722;SHT31;53633;49.932;10.884;2023-07-31T08:55:24;25.38;52.71
66722;SHT31;53633;49.932;10.884;2023-07-31T08:57:51;24.55;53.98
66722;SHT31;53633;49.932;10.884;2023-07-31T09:00:19;24.47;54.95
66722;SHT31;53633;49.932;10.884;2023-07-31T09:02:55;24.50;54.33
66722;SHT31;53633;49.932;10.884;2023-07-31T09:05:26;23.68;56.01
66722;SHT31;53633;49.932;10.884;2023-07-31T09:07:55;23.27;57.50
66722;SHT31;53633;49.932;10.884;2023-07-31T09:10:23;23.22;57.09
66722;SHT31;53633;49.932;10.884;2023-07-31T09:12:51;22.80;58.02
66722;SHT31;53633;49.932;10.884;2023-07-31T09:15:19;22.80;58.58
66722;SHT31;53633;49.932;10.884;2023-07-31T09:18:02;22.80;58.75
66722;SHT31;53633;49.932;10.884;2023-07-31T09:20:29;22.86;58.43
66722;SHT31;53633;49.932;10.884;2023-07-31T09:23:05;22.80;57.93
66722;SHT31;53633;49.932;10.884;2023-07-31T09:25:32;22.94;58.28
66722;SHT31;53633;49.932;10.884;2023-07-31T09:28:02;23.00;58.59
66722;SHT31;53633;49.932;10.884;2023-07-31T09:30:30;23.30;57.87
66722;SHT31;53633;49.932;10.884;2023-07-31T09:33:01;23.51;58.00
66722;SHT31;53633;49.932;10.884;2023-07-31T09:35:41;23.73;56.43
66722;SHT31;53633;49.932;10.884;2023-07-31T09:38:11;23.51;57.58
66722;SHT31;53633;49.932;10.884;2023-07-31T09:40:39;23.13;57.28
66722;SHT31;53633;49.932;10.884;2023-07-31T09:43:08;22.90;58.21
66722;SHT31;53633;49.932;10.884;2023-07-31T09:45:36;22.75;58.38
66722;SHT31;53633;49.932;10.884;2023-07-31T09:48:08;22.89;58.43
66722;SHT31;53633;49.932;10.884;2023-07-31T09:50:37;22.97;58.42
66722;SHT31;53633;49.932;10.884;2023-07-31T09:53:04;23.54;57.90
66722;SHT31;53633;49.932;10.884;2023-07-31T09:55:32;23.62;56.73
66722;SHT31;53633;49.932;10.884;2023-07-31T09:57:59;24.06;55.50
66722;SHT31;53633;49.932;10.884;2023-07-31T10:00:30;24.83;54.37
66722;SHT31;53633;49.932;10.884;2023-07-31T10:02:58;25.08;53.54
66722;SHT31;53633;49.932;10.884;2023-07-31T10:05:32;25.73;53.01
66722;SHT31;53633;49.932;10.884;2023-07-31T10:08:00;26.44;50.88
66722;SHT31;53633;49.932;10.884;2023-07-31T10:10:27;26.39;51.05
66722;SHT31;53633;49.932;10.884;2023-07-31T10:12:56;26.32;50.29
66722;SHT31;53633;49.932;10.884;2023-07-31T10:15:23;26.13;50.73
66722;SHT31;53633;49.932;10.884;2023-07-31T10:17:51;25.51;51.37
66722;SHT31;53633;49.932;10.884;2023-07-31T10:20:18;25.30;51.97
66722;SHT31;53633;49.932;10.884;2023-07-31T10:22:46;25.75;52.20
66722;SHT31;53633;49.932;10.884;2023-07-31T10:25:15;25.70;51.20
66722;SHT31;53633;49.932;10.884;2023-07-31T10:27:42;25.57;52.47
66722;SHT31;53633;49.932;10.884;2023-07-31T10:30:12;25.17;52.10
66722;SHT31;53633;49.932;10.884;2023-07-31T10:32:45;25.40;52.00
66722;SHT31;53633;49.932;10.884;2023-07-31T10:35:12;25.23;52.03
66722;SHT31;53633;49.932;10.884;2023-07-31T10:37:41;25.57;51.48
66722;SHT31;53633;49.932;10.884;2023-07-31T10:40:11;25.92;51.53
66722;SHT31;53633;49.932;10.884;2023-07-31T10:42:45;26.22;49.89
66722;SHT31;53633;49.932;10.884;2023-07-31T10:45:13;25.78;51.89
66722;SHT31;53633;49.932;10.884;2023-07-31T10:47:43;25.47;51.54
66722;SHT31;53633;49.932;10.884;2023-07-31T10:50:16;24.92;52.57
66722;SHT31;53633;49.932;10.884;2023-07-31T10:52:45;24.79;53.61
66722;SHT31;53633;49.932;10.884;2023-07-31T10:55:23;24.51;53.43
66722;SHT31;53633;49.932;10.884;2023-07-31T10:57:50;24.06;53.74
66722;SHT31;53633;49.932;10.884;2023-07-31T11:00:21;23.83;54.50
66722;SHT31;53633;49.932;10.884;2023-07-31T11:03:02;23.75;55.48
66722;SHT31;53633;49.932;10.884;2023-07-31T11:05:41;23.82;56.61
66722;SHT31;53633;49.932;10.884;2023-07-31T11:08:12;23.75;56.05
66722;SHT31;53633;49.932;10.884;2023-07-31T11:10:39;23.99;56.59
66722;SHT31;53633;49.932;10.884;2023-07-31T11:13:06;23.96;55.54
66722;SHT31;53633;49.932;10.884;2023-07-31T11:15:34;24.00;54.53
66722;SHT31;53633;49.932;10.884;2023-07-31T11:18:01;23.68;55.76
66722;SHT31;53633;49.932;10.884;2023-07-31T11:20:29;23.72;55.21
66722;SHT31;53633;49.932;10.884;2023-07-31T11:22:59;23.63;55.58
66722;SHT31;53633;49.932;10.884;2023-07-31T11:25:29;23.68;55.40
66722;SHT31;53633;49.932;10.884;2023-07-31T11:27:56;23.78;54.65
66722;SHT31;53633;49.932;10.884;2023-07-31T11:30:23;23.68;55.16
66722;SHT31;53633;49.932;10.884;2023-07-31T11:32:51;23.97;54.76
66722;SHT31;53633;49.932;10.884;2023-07-31T11:35:18;23.76;54.26
66722;SHT31;53633;49.932;10.884;2023-07-31T11:37:44;23.54;54.52
66722;SHT31;53633;49.932;10.884;2023-07-31T11:40:11;23.17;55.69
66722;SHT31;53633;49.932;10.884;2023-07-31T11:42:38;23.03;55.72
66722;SHT31;53633;49.932;10.884;2023-07-31T11:45:06;22.90;56.56
66722;SHT31;53633;49.932;10.884;2023-07-31T11:47:34;22.73;56.54
66722;SHT31;53633;49.932;10.884;2023-07-31T11:50:04;22.87;56.71
66722;SHT31;53633;49.932;10.884;2023-07-31T11:52:44;23.10;55.75
66722;SHT31;53633;49.932;10.884;2023-07-31T11:55:12;23.24;59.08
66722;SHT31;53633;49.932;10.884;2023-07-31T11:57:40;23.37;62.72
66722;SHT31;53633;49.932;10.884;2023-07-31T12:00:09;23.20;61.75
66722;SHT31;53633;49.932;10.884;2023-07-31T12:02:37;23.15;63.68
66722;SHT31;53633;49.932;10.884;2023-07-31T12:05:10;23.00;64.32
66722;SHT31;53633;49.932;10.884;2023-07-31T12:07:49;22.63;62.68
66722;SHT31;53633;49.932;10.884;2023-07-31T12:10:29;22.69;63.35
66722;SHT31;53633;49.932;10.884;2023-07-31T12:13:01;22.90;62.79
66722;SHT31;53633;49.932;10.884;2023-07-31T12:15:35;22.57;62.72
66722;SHT31;53633;49.932;10.884;2023-07-31T12:18:07;22.53;62.04
66722;SHT31;53633;49.932;10.884;2023-07-31T12:20:40;22.48;61.38
66722;SHT31;53633;49.932;10.884;2023-07-31T12:23:07;22.55;62.18
66722;SHT31;53633;49.932;10.884;2023-07-31T12:25:38;22.45;64.12
66722;SHT31;53633;49.932;10.884;2023-07-31T12:28:06;22.49;64.84
66722;SHT31;53633;49.932;10.884;2023-07-31T12:30:34;22.77;64.46
66722;SHT31;53633;49.932;10.884;2023-07-31T12:33:04;22.82;64.44
66722;SHT31;53633;49.932;10.884;2023-07-31T12:35:41;22.77;63.85
66722;SHT31;53633;49.932;10.884;2023-07-31T12:38:08;22.94;63.47
66722;SHT31;53633;49.932;10.884;2023-07-31T12:40:37;23.18;62.77
66722;SHT31;53633;49.932;10.884;2023-07-31T12:43:04;23.41;63.67
66722;SHT31;53633;49.932;10.884;2023-07-31T12:45:30;23.42;62.06
66722;SHT31;53633;49.932;10.884;2023-07-31T12:47:57;23.32;60.78
66722;SHT31;53633;49.932;10.884;2023-07-31T12:50:24;23.35;61.69
66722;SHT31;53633;49.932;10.884;2023-07-31T12:52:53;23.32;59.54
66722;SHT31;53633;49.932;10.884;2023-07-31T12:55:20;23.21;59.71
66722;SHT31;53633;49.932;10.884;2023-07-31T12:57:47;23.32;59.25
66722;SHT31;53633;49.932;10.884;2023-07-31T13:00:14;23.22;59.21
66722;SHT31;53633;49.932;10.884;2023-07-31T13:02:40;23.27;58.46
66722;SHT31;53633;49.932;10.884;2023-07-31T13:05:08;23.08;58.10
66722;SHT31;53633;49.932;10.884;2023-07-31T13:07:34;23.32;58.28
66722;SHT31;53633;49.932;10.884;2023-07-31T13:10:03;23.47;57.02
66722;SHT31;53633;49.932;10.884;2023-07-31T13:12:30;23.65;56.10
66722;SHT31;53633;49.932;10.884;2023-07-31T13:14:56;23.62;56.05
66722;SHT31;53633;49.932;10.884;2023-07-31T13:17:23;23.75;56.35
66722;SHT31;53633;49.932;10.884;2023-07-31T13:19:50;23.85;56.58
66722;SHT31;53633;49.932;10.884;2023-07-31T13:22:17;23.75;55.71
66722;SHT31;53633;49.932;10.884;2023-07-31T13:24:43;23.97;54.86
66722;SHT31;53633;49.932;10.884;2023-07-31T13:27:11;23.85;54.66
66722;SHT31;53633;49.932;10.884;2023-07-31T13:29:38;23.96;54.96
66722;SHT31;53633;49.932;10.884;2023-07-31T13:32:05;24.10;55.90
66722;SHT31;53633;49.932;10.884;2023-07-31T13:34:32;24.21;55.26
66722;SHT31;53633;49.932;10.884;2023-07-31T13:36:58;23.95;54.68
66722;SHT31;53633;49.932;10.884;2023-07-31T13:39:25;24.10;54.22
66722;SHT31;53633;49.932;10.884;2023-07-31T13:41:52;24.35;54.21
66722;SHT31;53633;49.932;10.884;2023-07-31T13:44:20;24.51;53.84
66722;SHT31;53633;49.932;10.884;2023-07-31T13:46:46;24.60;53.78
66722;SHT31;53633;49.932;10.884;2023-07-31T13:49:13;24.14;53.43
66722;SHT31;53633;49.932;10.884;2023-07-31T13:51:40;24.12;53.37
66722;SHT31;53633;49.932;10.884;2023-07-31T13:54:07;24.21;53.32
66722;SHT31;53633;49.932;10.884;2023-07-31T13:56:33;24.12;53.91
66722;SHT31;53633;49.932;10.884;2023-07-31T13:59:00;24.21;54.02
66722;SHT31;53633;49.932;10.884;2023-07-31T14:01:28;24.40;53.44
66722;SHT31;53633;49.932;10.884;2023-07-31T14:03:55;24.45;54.55
66722;SHT31;53633;49.932;10.884;2023-07-31T14:06:22;24.40;58.46
66722;SHT31;53633;49.932;10.884;2023-07-31T14:08:48;24.43;58.60
66722;SHT31;53633;49.932;10.884;2023-07-31T14:11:15;24.35;58.99
66722;SHT31;53633;49.932;10.884;2023-07-31T14:13:42;24.30;59.01
66722;SHT31;53633;49.932;10.884;2023-07-31T14:16:08;23.76;58.55
66722;SHT31;53633;49.932;10.884;2023-07-31T14:18:37;23.90;58.91
66722;SHT31;53633;49.932;10.884;2023-07-31T14:21:04;23.89;57.83
66722;SHT31;53633;49.932;10.884;2023-07-31T14:23:31;23.86;58.32
66722;SHT31;53633;49.932;10.884;2023-07-31T14:25:57;23.76;57.45
66722;SHT31;53633;49.932;10.884;2023-07-31T14:28:24;23.92;57.53
66722;SHT31;53633;49.932;10.884;2023-07-31T14:30:51;23.90;56.71
66722;SHT31;53633;49.932;10.884;2023-07-31T14:33:18;24.00;56.82
66722;SHT31;53633;49.932;10.884;2023-07-31T14:35:47;24.02;55.96
66722;SHT31;53633;49.932;10.884;2023-07-31T14:38:13;23.83;55.66
66722;SHT31;53633;49.932;10.884;2023-07-31T14:40:41;23.85;55.80
66722;SHT31;53633;49.932;10.884;2023-07-31T14:43:08;23.82;55.19
66722;SHT31;53633;49.932;10.884;2023-07-31T14:45:34;23.86;54.43
66722;SHT31;53633;49.932;10.884;2023-07-31T14:48:02;23.80;54.10
66722;SHT31;53633;49.932;10.884;2023-07-31T14:50:29;23.69;54.78
66722;SHT31;53633;49.932;10.884;2023-07-31T14:52:57;23.55;54.90
66722;SHT31;53633;49.932;10.884;2023-07-31T14:55:24;23.51;54.85
66722;SHT31;53633;49.932;10.884;2023-07-31T14:57:50;23.61;55.13
66722;SHT31;53633;49.932;10.884;2023-07-31T15:00:17;23.65;56.11
66722;SHT31;53633;49.932;10.884;2023-07-31T15:02:44;23.57;55.00
66722;SHT31;53633;49.932;10.884;2023-07-31T15:05:11;23.34;55.77
66722;SHT31;53633;49.932;10.884;2023-07-31T15:07:38;23.27;55.56
66722;SHT31;53633;49.932;10.884;2023-07-31T15:10:08;23.35;55.78
66722;SHT31;53633;49.932;10.884;2023-07-31T15:12:35;23.25;55.57
66722;SHT31;53633;49.932;10.884;2023-07-31T15:15:02;23.20;55.37
66722;SHT31;53633;49.932;10.884;2023-07-31T15:17:28;23.25;55.44
66722;SHT31;53633;49.932;10.884;2023-07-31T15:19:55;23.13;55.63
66722;SHT31;53633;49.932;10.884;2023-07-31T15:22:22;23.17;55.81